sensor_id;sensor_type;location;lat;lon;timestamp;pressure;altitude;pressure_sealevel;temperature;humidity
51715;BME280;39115;59.332;18.034;2022-12-07T00:02:09;100514.50;;;-3.28;71.30
51715;BME280;39115;59.332;18.034;2022-12-07T00:04:34;100516.44;;;-3.35;71.21
51715;BME280;39115;59.332;18.034;2022-12-07T00:07:00;100513.16;;;-3.40;71.45
51715;BME280;39115;59.332;18.034;2022-12-07T00:09:26;100505.38;;;-3.42;70.95
51715;BME280;39115;59.332;18.034;2022-12-07T00:11:51;100504.53;;;-3.42;71.30
51715;BME280;39115;59.332;18.034;2022-12-07T00:14:17;100502.00;;;-3.44;71.53
51715;BME280;39115;59.332;18.034;2022-12-07T00:16:43;100501.19;;;-3.46;71.21
51715;BME280;39115;59.332;18.034;2022-12-07T00:19:08;100498.69;;;-3.49;70.90
51715;BME280;39115;59.332;18.034;2022-12-07T00:21:34;100505.72;;;-3.51;70.72
51715;BME280;39115;59.332;18.034;2022-12-07T00:24:00;100502.25;;;-3.52;71.27
51715;BME280;39115;59.332;18.034;2022-12-07T00:26:27;100497.94;;;-3.53;71.08
51715;BME280;39115;59.332;18.034;2022-12-07T00:28:53;100500.69;;;-3.57;71.27
51715;BME280;39115;59.332;18.034;2022-12-07T00:31:21;100493.00;;;-3.60;70.77
51715;BME280;39115;59.332;18.034;2022-12-07T00:33:47;100484.38;;;-3.62;70.71
51715;BME280;39115;59.332;18.034;2022-12-07T00:36:14;100488.75;;;-3.63;70.76
51715;BME280;39115;59.332;18.034;2022-12-07T00:38:39;100490.47;;;-3.63;70.88
51715;BME280;39115;59.332;18.034;2022-12-07T00:41:06;100483.56;;;-3.65;71.13
51715;BME280;39115;59.332;18.034;2022-12-07T00:43:33;100481.94;;;-3.67;71.06
51715;BME280;39115;59.332;18.034;2022-12-07T00:45:58;100480.19;;;-3.67;70.99
51715;BME280;39115;59.332;18.034;2022-12-07T00:48:24;100480.13;;;-3.65;70.95
51715;BME280;39115;59.332;18.034;2022-12-07T00:50:49;100480.06;;;-3.63;70.74
51715;BME280;39115;59.332;18.034;2022-12-07T00:53:15;100473.91;;;-3.61;71.04
51715;BME280;39115;59.332;18.034;2022-12-07T00:55:40;100468.63;;;-3.58;70.68
51715;BME280;39115;59.332;18.034;2022-12-07T00:58:06;100473.75;;;-3.56;71.20
51715;BME280;39115;59.332;18.034;2022-12-07T01:00:31;100474.50;;;-3.53;70.60
51715;BME280;39115;59.332;18.034;2022-12-07T01:02:56;100470.13;;;-3.51;71.04
51715;BME280;39115;59.332;18.034;2022-12-07T01:05:22;100464.00;;;-3.50;70.53
51715;BME280;39115;59.332;18.034;2022-12-07T01:07:47;100470.03;;;-3.47;70.92
51715;BME280;39115;59.332;18.034;2022-12-07T01:10:13;100466.56;;;-3.48;71.03
51715;BME280;39115;59.332;18.034;2022-12-07T01:12:38;100464.84;;;-3.49;71.21
51715;BME280;39115;59.332;18.034;2022-12-07T01:15:03;100472.56;;;-3.46;71.16
51715;BME280;39115;59.332;18.034;2022-12-07T01:17:29;100478.59;;;-3.44;71.22
51715;BME280;39115;59.332;18.034;2022-12-07T01:19:54;100473.38;;;-3.44;70.83
51715;BME280;39115;59.332;18.034;2022-12-07T01:22:19;100465.50;;;-3.42;70.58
51715;BME280;39115;59.332;18.034;2022-12-07T01:24:45;100466.31;;;-3.40;70.57
51715;BME280;39115;59.332;18.034;2022-12-07T01:27:11;100474.06;;;-3.39;71.01
51715;BME280;39115;59.332;18.034;2022-12-07T01:29:37;100471.44;;;-3.39;70.57
51715;BME280;39115;59.332;18.034;2022-12-07T01:32:02;100469.75;;;-3.40;70.61
51715;BME280;39115;59.332;18.034;2022-12-07T01:34:27;100455.94;;;-3.42;70.63
51715;BME280;39115;59.332;18.034;2022-12-07T01:36:52;100455.91;;;-3.40;71.20
51715;BME280;39115;59.332;18.034;2022-12-07T01:39:18;100461.88;;;-3.38;70.87
51715;BME280;39115;59.332;18.034;2022-12-07T01:41:43;100463.66;;;-3.39;70.85
51715;BME280;39115;59.332;18.034;2022-12-07T01:44:10;100466.16;;;-3.36;71.25
51715;BME280;39115;59.332;18.034;2022-12-07T01:46:36;100459.19;;;-3.35;71.06
51715;BME280;39115;59.332;18.034;2022-12-07T01:49:02;100459.13;;;-3.34;70.87
51715;BME280;39115;59.332;18.034;2022-12-07T01:51:28;100466.03;;;-3.33;70.67
51715;BME280;39115;59.332;18.034;2022-12-07T01:53:55;100468.63;;;-3.33;70.64
51715;BME280;39115;59.332;18.034;2022-12-07T01:56:22;100464.22;;;-3.30;71.00
51715;BME280;39115;59.332;18.034;2022-12-07T01:58:49;100466.78;;;-3.29;70.68
51715;BME280;39115;59.332;18.034;2022-12-07T02:01:16;100464.16;;;-3.29;70.80
51715;BME280;39115;59.332;18.034;2022-12-07T02:03:42;100455.53;;;-3.29;70.58
51715;BME280;39115;59.332;18.034;2022-12-07T02:06:08;100450.38;;;-3.31;70.96
51715;BME280;39115;59.332;18.034;2022-12-07T02:08:35;100467.72;;;-3.31;70.35
51715;BME280;39115;59.332;18.034;2022-12-07T02:11:01;100461.56;;;-3.29;71.07
51715;BME280;39115;59.332;18.034;2022-12-07T02:13:28;100456.34;;;-3.29;70.67
51715;BME280;39115;59.332;18.034;2022-12-07T02:18:25;100452.91;;;-3.29;70.71
51715;BME280;39115;59.332;18.034;2022-12-07T02:26:36;100452.84;;;-3.28;70.73
51715;BME280;39115;59.332;18.034;2022-12-07T02:31:25;100444.25;;;-3.30;70.46
51715;BME280;39115;59.332;18.034;2022-12-07T02:33:54;100446.84;;;-3.30;71.26
51715;BME280;39115;59.332;18.034;2022-12-07T02:36:26;100447.72;;;-3.29;70.98
51715;BME280;39115;59.332;18.034;2022-12-07T02:39:12;100441.69;;;-3.31;70.91
51715;BME280;39115;59.332;18.034;2022-12-07T02:41:43;100440.00;;;-3.33;70.66
51715;BME280;39115;59.332;18.034;2022-12-07T02:44:10;100431.41;;;-3.35;70.89
51715;BME280;39115;59.332;18.034;2022-12-07T02:46:42;100436.78;;;-3.39;70.60
51715;BME280;39115;59.332;18.034;2022-12-07T02:49:07;100434.38;;;-3.45;71.00
51715;BME280;39115;59.332;18.034;2022-12-07T02:51:33;100434.47;;;-3.48;70.52
51715;BME280;39115;59.332;18.034;2022-12-07T02:53:59;100431.13;;;-3.52;71.21
51715;BME280;39115;59.332;18.034;2022-12-07T02:56:30;100437.25;;;-3.53;70.91
51715;BME280;39115;59.332;18.034;2022-12-07T03:04:08;100428.03;;;-3.63;71.16
51715;BME280;39115;59.332;18.034;2022-12-07T03:06:41;100424.69;;;-3.67;70.93
51715;BME280;39115;59.332;18.034;2022-12-07T03:09:14;100427.44;;;-3.72;71.17
51715;BME280;39115;59.332;18.034;2022-12-07T03:11:45;100414.59;;;-3.76;70.87
51715;BME280;39115;59.332;18.034;2022-12-07T03:14:13;100416.44;;;-3.80;70.96
51715;BME280;39115;59.332;18.034;2022-12-07T03:17:27;100415.66;;;-3.82;70.98
51715;BME280;39115;59.332;18.034;2022-12-07T03:19:27;100415.66;;;-3.82;70.94
51715;BME280;39115;59.332;18.034;2022-12-07T03:21:55;100423.50;;;-3.84;71.15
51715;BME280;39115;59.332;18.034;2022-12-07T03:24:24;100420.94;;;-3.85;70.90
51715;BME280;39115;59.332;18.034;2022-12-07T03:26:52;100414.94;;;-3.87;70.83
51715;BME280;39115;59.332;18.034;2022-12-07T03:29:20;100409.88;;;-3.90;70.79
51715;BME280;39115;59.332;18.034;2022-12-07T03:31:48;100415.09;;;-3.92;71.19
51715;BME280;39115;59.332;18.034;2022-12-07T03:34:18;100416.84;;;-3.92;70.84
51715;BME280;39115;59.332;18.034;2022-12-07T03:36:47;100415.09;;;-3.92;71.69
51715;BME280;39115;59.332;18.034;2022-12-07T03:41:43;100424.66;;;-3.92;71.13
51715;BME280;39115;59.332;18.034;2022-12-07T03:44:09;100417.69;;;-3.92;71.14
51715;BME280;39115;59.332;18.034;2022-12-07T03:46:42;100411.72;;;-3.94;71.66
51715;BME280;39115;59.332;18.034;2022-12-07T03:51:47;100409.16;;;-3.95;70.66
51715;BME280;39115;59.332;18.034;2022-12-07T03:56:42;100405.56;;;-3.91;71.01
51715;BME280;39115;59.332;18.034;2022-12-07T03:59:08;100391.69;;;-3.92;70.95
51715;BME280;39115;59.332;18.034;2022-12-07T04:01:34;100396.72;;;-3.86;71.24
51715;BME280;39115;59.332;18.034;2022-12-07T04:03:59;100387.97;;;-3.85;70.91
51715;BME280;39115;59.332;18.034;2022-12-07T04:06:25;100391.38;;;-3.83;70.99
51715;BME280;39115;59.332;18.034;2022-12-07T04:08:50;100389.59;;;-3.81;71.35
51715;BME280;39115;59.332;18.034;2022-12-07T04:11:15;100379.09;;;-3.77;71.29
51715;BME280;39115;59.332;18.034;2022-12-07T04:13:40;100373.81;;;-3.76;71.42
51715;BME280;39115;59.332;18.034;2022-12-07T04:16:24;100372.81;;;-3.72;71.19
51715;BME280;39115;59.332;18.034;2022-12-07T04:18:49;100369.38;;;-3.72;71.03
51715;BME280;39115;59.332;18.034;2022-12-07T04:21:15;100363.13;;;-3.67;71.26
51715;BME280;39115;59.332;18.034;2022-12-07T04:23:40;100372.50;;;-3.62;70.73
51715;BME280;39115;59.332;18.034;2022-12-07T04:26:05;100374.09;;;-3.58;71.21
51715;BME280;39115;59.332;18.034;2022-12-07T04:28:30;100372.25;;;-3.55;70.69
51715;BME280;39115;59.332;18.034;2022-12-07T04:30:56;100366.91;;;-3.52;70.95
51715;BME280;39115;59.332;18.034;2022-12-07T04:33:21;100368.56;;;-3.49;71.16
51715;BME280;39115;59.332;18.034;2022-12-07T04:35:46;100366.75;;;-3.47;71.17
51715;BME280;39115;59.332;18.034;2022-12-07T04:38:11;100358.03;;;-3.46;70.66
51715;BME280;39115;59.332;18.034;2022-12-07T04:40:37;100352.78;;;-3.44;70.66
51715;BME280;39115;59.332;18.034;2022-12-07T04:43:02;100362.28;;;-3.43;71.11
51715;BME280;39115;59.332;18.034;2022-12-07T04:45:27;100351.06;;;-3.45;71.25
51715;BME280;39115;59.332;18.034;2022-12-07T04:47:53;100352.03;;;-3.48;71.16
51715;BME280;39115;59.332;18.034;2022-12-07T04:50:18;100346.00;;;-3.48;71.35
51715;BME280;39115;59.332;18.034;2022-12-07T04:52:43;100343.31;;;-3.47;71.22
51715;BME280;39115;59.332;18.034;2022-12-07T04:55:08;100345.09;;;-3.47;71.02
51715;BME280;39115;59.332;18.034;2022-12-07T04:57:34;100339.03;;;-3.48;70.95
51715;BME280;39115;59.332;18.034;2022-12-07T04:59:59;100339.88;;;-3.47;71.04
51715;BME280;39115;59.332;18.034;2022-12-07T05:02:24;100330.25;;;-3.45;70.93
51715;BME280;39115;59.332;18.034;2022-12-07T05:04:50;100323.31;;;-3.45;70.79
51715;BME280;39115;59.332;18.034;2022-12-07T05:07:15;100323.25;;;-3.43;70.68
51715;BME280;39115;59.332;18.034;2022-12-07T05:09:40;100325.78;;;-3.42;71.17
51715;BME280;39115;59.332;18.034;2022-12-07T05:12:06;100318.91;;;-3.43;70.99
51715;BME280;39115;59.332;18.034;2022-12-07T05:14:31;100325.84;;;-3.43;71.03
51715;BME280;39115;59.332;18.034;2022-12-07T05:16:56;100325.75;;;-3.40;70.90
51715;BME280;39115;59.332;18.034;2022-12-07T05:19:21;100321.44;;;-3.41;71.18
51715;BME280;39115;59.332;18.034;2022-12-07T05:21:47;100316.97;;;-3.38;71.31
51715;BME280;39115;59.332;18.034;2022-12-07T05:24:13;100322.13;;;-3.36;70.79
51715;BME280;39115;59.332;18.034;2022-12-07T05:26:38;100317.78;;;-3.36;70.79
51715;BME280;39115;59.332;18.034;2022-12-07T05:29:04;100316.09;;;-3.38;70.81
51715;BME280;39115;59.332;18.034;2022-12-07T05:31:29;100317.88;;;-3.39;71.11
51715;BME280;39115;59.332;18.034;2022-12-07T05:33:54;100307.53;;;-3.40;71.30
51715;BME280;39115;59.332;18.034;2022-12-07T05:36:20;100307.63;;;-3.43;71.21
51715;BME280;39115;59.332;18.034;2022-12-07T05:38:45;100302.59;;;-3.48;70.81
51715;BME280;39115;59.332;18.034;2022-12-07T05:41:12;100312.16;;;-3.48;71.19
51715;BME280;39115;59.332;18.034;2022-12-07T05:43:57;100312.16;;;-3.48;71.28
51715;BME280;39115;59.332;18.034;2022-12-07T05:46:23;100296.63;;;-3.50;71.22
51715;BME280;39115;59.332;18.034;2022-12-07T05:48:48;100297.38;;;-3.48;71.23
51715;BME280;39115;59.332;18.034;2022-12-07T05:51:13;100299.94;;;-3.46;71.22
51715;BME280;39115;59.332;18.034;2022-12-07T05:53:39;100296.53;;;-3.48;70.88
51715;BME280;39115;59.332;18.034;2022-12-07T05:56:04;100292.34;;;-3.53;70.87
51715;BME280;39115;59.332;18.034;2022-12-07T05:58:29;100300.28;;;-3.56;71.30
51715;BME280;39115;59.332;18.034;2022-12-07T06:01:13;100306.44;;;-3.58;70.96
51715;BME280;39115;59.332;18.034;2022-12-07T06:03:39;100301.28;;;-3.60;70.78
51715;BME280;39115;59.332;18.034;2022-12-07T06:06:04;100301.28;;;-3.60;70.93
51715;BME280;39115;59.332;18.034;2022-12-07T06:08:29;100300.44;;;-3.60;70.79
51715;BME280;39115;59.332;18.034;2022-12-07T06:10:55;100303.94;;;-3.61;70.86
51715;BME280;39115;59.332;18.034;2022-12-07T06:13:40;100306.53;;;-3.61;71.59
51715;BME280;39115;59.332;18.034;2022-12-07T06:16:05;100307.44;;;-3.62;71.28
51715;BME280;39115;59.332;18.034;2022-12-07T06:18:31;100304.00;;;-3.63;70.93
51715;BME280;39115;59.332;18.034;2022-12-07T06:20:56;100305.81;;;-3.65;71.45
51715;BME280;39115;59.332;18.034;2022-12-07T06:23:21;100315.25;;;-3.62;70.75
51715;BME280;39115;59.332;18.034;2022-12-07T06:25:47;100307.44;;;-3.62;71.49
51715;BME280;39115;59.332;18.034;2022-12-07T06:28:12;100307.44;;;-3.62;71.25
51715;BME280;39115;59.332;18.034;2022-12-07T06:30:37;100300.53;;;-3.63;70.96
51715;BME280;39115;59.332;18.034;2022-12-07T06:33:03;100303.09;;;-3.62;70.49
51715;BME280;39115;59.332;18.034;2022-12-07T06:35:28;100310.91;;;-3.62;70.54
51715;BME280;39115;59.332;18.034;2022-12-07T06:37:53;100319.56;;;-3.61;70.61
51715;BME280;39115;59.332;18.034;2022-12-07T06:40:19;100324.81;;;-3.63;70.60
51715;BME280;39115;59.332;18.034;2022-12-07T06:42:44;100318.81;;;-3.65;70.65
51715;BME280;39115;59.332;18.034;2022-12-07T06:45:09;100324.09;;;-3.67;71.10
51715;BME280;39115;59.332;18.034;2022-12-07T06:47:35;100318.91;;;-3.68;71.15
51715;BME280;39115;59.332;18.034;2022-12-07T06:50:00;100318.91;;;-3.68;71.09
51715;BME280;39115;59.332;18.034;2022-12-07T06:52:25;100318.91;;;-3.68;70.93
51715;BME280;39115;59.332;18.034;2022-12-07T06:54:50;100317.19;;;-3.68;71.14
51715;BME280;39115;59.332;18.034;2022-12-07T06:57:16;100320.63;;;-3.67;71.38
51715;BME280;39115;59.332;18.034;2022-12-07T06:59:41;100325.81;;;-3.67;70.96
51715;BME280;39115;59.332;18.034;2022-12-07T07:02:07;100328.41;;;-3.67;71.21
51715;BME280;39115;59.332;18.034;2022-12-07T07:04:35;100334.53;;;-3.68;71.16
51715;BME280;39115;59.332;18.034;2022-12-07T07:07:00;100329.38;;;-3.70;70.86
51715;BME280;39115;59.332;18.034;2022-12-07T07:09:25;100334.59;;;-3.70;70.67
51715;BME280;39115;59.332;18.034;2022-12-07T07:11:51;100338.94;;;-3.70;70.61
51715;BME280;39115;59.332;18.034;2022-12-07T07:14:16;100329.44;;;-3.71;71.18
51715;BME280;39115;59.332;18.034;2022-12-07T07:16:44;100338.09;;;-3.71;71.02
51715;BME280;39115;59.332;18.034;2022-12-07T07:19:09;100342.47;;;-3.73;70.94
51715;BME280;39115;59.332;18.034;2022-12-07T07:21:34;100338.22;;;-3.74;70.95
51715;BME280;39115;59.332;18.034;2022-12-07T07:24:00;100337.41;;;-3.76;70.89
51715;BME280;39115;59.332;18.034;2022-12-07T07:26:25;100341.75;;;-3.76;70.77
51715;BME280;39115;59.332;18.034;2022-12-07T07:28:50;100336.59;;;-3.78;71.45
51715;BME280;39115;59.332;18.034;2022-12-07T07:31:16;100341.00;;;-3.80;70.60
51715;BME280;39115;59.332;18.034;2022-12-07T07:33:41;100342.75;;;-3.81;70.58
51715;BME280;39115;59.332;18.034;2022-12-07T07:36:06;100342.72;;;-3.79;70.66
51715;BME280;39115;59.332;18.034;2022-12-07T07:38:32;100340.97;;;-3.78;71.12
51715;BME280;39115;59.332;18.034;2022-12-07T07:40:57;100338.31;;;-3.77;71.37
51715;BME280;39115;59.332;18.034;2022-12-07T07:43:22;100333.03;;;-3.75;70.93
51715;BME280;39115;59.332;18.034;2022-12-07T07:45:48;100328.72;;;-3.76;71.42
51715;BME280;39115;59.332;18.034;2022-12-07T07:48:13;100332.19;;;-3.76;71.19
51715;BME280;39115;59.332;18.034;2022-12-07T07:50:38;100329.47;;;-3.73;70.88
51715;BME280;39115;59.332;18.034;2022-12-07T07:53:03;100325.94;;;-3.70;71.43
51715;BME280;39115;59.332;18.034;2022-12-07T07:55:29;100334.53;;;-3.68;71.28
51715;BME280;39115;59.332;18.034;2022-12-07T07:57:54;100336.19;;;-3.66;70.80
51715;BME280;39115;59.332;18.034;2022-12-07T08:00:20;100335.22;;;-3.63;71.19
51715;BME280;39115;59.332;18.034;2022-12-07T08:02:45;100331.72;;;-3.62;71.32
51715;BME280;39115;59.332;18.034;2022-12-07T08:05:11;100335.06;;;-3.58;71.28
51715;BME280;39115;59.332;18.034;2022-12-07T08:07:36;100330.63;;;-3.56;71.10
51715;BME280;39115;59.332;18.034;2022-12-07T08:10:02;100332.41;;;-3.57;70.79
51715;BME280;39115;59.332;18.034;2022-12-07T08:12:27;100336.75;;;-3.57;71.03
51715;BME280;39115;59.332;18.034;2022-12-07T08:14:53;100336.81;;;-3.59;71.03
51715;BME280;39115;59.332;18.034;2022-12-07T08:17:18;100334.19;;;-3.59;70.86
51715;BME280;39115;59.332;18.034;2022-12-07T08:19:43;100335.09;;;-3.60;71.25
51715;BME280;39115;59.332;18.034;2022-12-07T08:22:11;100328.19;;;-3.61;71.12
51715;BME280;39115;59.332;18.034;2022-12-07T08:24:37;100331.72;;;-3.62;71.02
51715;BME280;39115;59.332;18.034;2022-12-07T08:27:02;100331.66;;;-3.60;71.18
51715;BME280;39115;59.332;18.034;2022-12-07T08:29:28;100323.78;;;-3.59;70.63
51715;BME280;39115;59.332;18.034;2022-12-07T08:31:53;100321.13;;;-3.57;71.22
51715;BME280;39115;59.332;18.034;2022-12-07T08:34:18;100311.44;;;-3.52;70.72
51715;BME280;39115;59.332;18.034;2022-12-07T08:36:44;100307.84;;;-3.50;70.92
51715;BME280;39115;59.332;18.034;2022-12-07T08:39:09;100312.97;;;-3.46;71.08
51715;BME280;39115;59.332;18.034;2022-12-07T08:41:35;100308.59;;;-3.46;71.09
51715;BME280;39115;59.332;18.034;2022-12-07T08:44:00;100311.13;;;-3.44;71.15
51715;BME280;39115;59.332;18.034;2022-12-07T08:46:31;100305.88;;;-3.43;71.03
51715;BME280;39115;59.332;18.034;2022-12-07T08:49:45;100312.72;;;-3.40;71.33
51715;BME280;39115;59.332;18.034;2022-12-07T08:51:51;100302.31;;;-3.40;71.02
51715;BME280;39115;59.332;18.034;2022-12-07T08:54:17;100307.47;;;-3.39;70.66
51715;BME280;39115;59.332;18.034;2022-12-07T08:56:43;100311.75;;;-3.38;70.77
51715;BME280;39115;59.332;18.034;2022-12-07T08:59:10;100309.09;;;-3.36;71.03
51715;BME280;39115;59.332;18.034;2022-12-07T09:01:36;100309.84;;;-3.33;70.64
51715;BME280;39115;59.332;18.034;2022-12-07T09:04:02;100302.00;;;-3.31;70.98
51715;BME280;39115;59.332;18.034;2022-12-07T09:06:28;100300.28;;;-3.32;70.67
51715;BME280;39115;59.332;18.034;2022-12-07T09:08:55;100304.69;;;-3.34;70.68
51715;BME280;39115;59.332;18.034;2022-12-07T09:11:22;100301.25;;;-3.35;70.92
51715;BME280;39115;59.332;18.034;2022-12-07T09:13:47;100299.47;;;-3.34;70.96
51715;BME280;39115;59.332;18.034;2022-12-07T09:16:13;100296.81;;;-3.33;70.68
51715;BME280;39115;59.332;18.034;2022-12-07T09:18:38;100302.03;;;-3.33;70.70
51715;BME280;39115;59.332;18.034;2022-12-07T09:21:03;100294.03;;;-3.28;71.22
51715;BME280;39115;59.332;18.034;2022-12-07T09:23:29;100294.09;;;-3.29;71.03
51715;BME280;39115;59.332;18.034;2022-12-07T09:25:54;100289.81;;;-3.30;71.21
51715;BME280;39115;59.332;18.034;2022-12-07T09:28:19;100298.44;;;-3.30;71.06
51715;BME280;39115;59.332;18.034;2022-12-07T09:30:48;100298.44;;;-3.30;71.27
51715;BME280;39115;59.332;18.034;2022-12-07T09:33:14;100292.34;;;-3.29;70.87
51715;BME280;39115;59.332;18.034;2022-12-07T09:35:46;100294.94;;;-3.29;71.05
51715;BME280;39115;59.332;18.034;2022-12-07T09:38:12;100297.53;;;-3.29;71.15
51715;BME280;39115;59.332;18.034;2022-12-07T09:40:38;100293.25;;;-3.30;71.14
51715;BME280;39115;59.332;18.034;2022-12-07T09:43:03;100294.03;;;-3.28;71.31
51715;BME280;39115;59.332;18.034;2022-12-07T09:45:38;100296.66;;;-3.28;71.10
51715;BME280;39115;59.332;18.034;2022-12-07T09:48:03;100297.44;;;-3.26;70.93
51715;BME280;39115;59.332;18.034;2022-12-07T09:50:29;100287.84;;;-3.24;70.92
51715;BME280;39115;59.332;18.034;2022-12-07T09:53:07;100293.78;;;-3.20;70.78
51715;BME280;39115;59.332;18.034;2022-12-07T09:55:33;100295.41;;;-3.18;70.75
51715;BME280;39115;59.332;18.034;2022-12-07T09:57:58;100291.91;;;-3.16;70.82
51715;BME280;39115;59.332;18.034;2022-12-07T10:00:24;100285.00;;;-3.18;70.82
51715;BME280;39115;59.332;18.034;2022-12-07T10:05:16;100286.56;;;-3.13;70.79
51715;BME280;39115;59.332;18.034;2022-12-07T10:07:43;100288.31;;;-3.14;70.86
51715;BME280;39115;59.332;18.034;2022-12-07T10:10:12;100289.13;;;-3.12;70.90
51715;BME280;39115;59.332;18.034;2022-12-07T10:12:55;100285.56;;;-3.09;71.25
51715;BME280;39115;59.332;18.034;2022-12-07T10:15:21;100286.22;;;-3.04;71.19
51715;BME280;39115;59.332;18.034;2022-12-07T10:17:50;100274.81;;;-3.02;70.80
51715;BME280;39115;59.332;18.034;2022-12-07T10:20:25;100282.53;;;-2.98;70.75
51715;BME280;39115;59.332;18.034;2022-12-07T10:25:25;100272.75;;;-2.93;70.55
51715;BME280;39115;59.332;18.034;2022-12-07T10:27:58;100270.88;;;-2.90;70.82
51715;BME280;39115;59.332;18.034;2022-12-07T10:30:24;100271.63;;;-2.86;70.67
51715;BME280;39115;59.332;18.034;2022-12-07T10:32:49;100262.91;;;-2.85;71.12
51715;BME280;39115;59.332;18.034;2022-12-07T10:35:19;100256.88;;;-2.87;71.12
51715;BME280;39115;59.332;18.034;2022-12-07T10:37:44;100259.56;;;-2.89;71.23
51715;BME280;39115;59.332;18.034;2022-12-07T10:42:59;100254.34;;;-2.89;70.81
51715;BME280;39115;59.332;18.034;2022-12-07T10:45:25;100247.44;;;-2.90;70.64
51715;BME280;39115;59.332;18.034;2022-12-07T11:08:15;100201.88;;;-2.79;70.86
51715;BME280;39115;59.332;18.034;2022-12-07T11:11:26;100203.50;;;-2.77;70.71
51715;BME280;39115;59.332;18.034;2022-12-07T11:13:44;100202.53;;;-2.74;70.70
51715;BME280;39115;59.332;18.034;2022-12-07T11:18:52;100209.19;;;-2.67;70.88
51715;BME280;39115;59.332;18.034;2022-12-07T11:21:32;100201.25;;;-2.64;70.98
51715;BME280;39115;59.332;18.034;2022-12-07T11:37:10;100183.63;;;-2.57;70.82
51715;BME280;39115;59.332;18.034;2022-12-07T11:39:42;100183.53;;;-2.56;70.79
51715;BME280;39115;59.332;18.034;2022-12-07T11:42:12;100173.94;;;-2.55;70.88
51715;BME280;39115;59.332;18.034;2022-12-07T11:44:44;100174.81;;;-2.55;70.71
51715;BME280;39115;59.332;18.034;2022-12-07T11:47:28;100175.72;;;-2.56;70.80
51715;BME280;39115;59.332;18.034;2022-12-07T11:52:44;100175.78;;;-2.57;71.00
51715;BME280;39115;59.332;18.034;2022-12-07T11:55:19;100173.13;;;-2.56;70.72
51715;BME280;39115;59.332;18.034;2022-12-07T11:57:47;100163.53;;;-2.55;71.00
51715;BME280;39115;59.332;18.034;2022-12-07T12:00:16;100166.13;;;-2.55;70.75
51715;BME280;39115;59.332;18.034;2022-12-07T12:02:57;100158.19;;;-2.52;70.80
51715;BME280;39115;59.332;18.034;2022-12-07T12:05:25;100152.97;;;-2.52;70.95
51715;BME280;39115;59.332;18.034;2022-12-07T12:08:00;100144.16;;;-2.49;70.63
51715;BME280;39115;59.332;18.034;2022-12-07T12:10:32;100151.91;;;-2.48;70.90
51715;BME280;39115;59.332;18.034;2022-12-07T12:15:49;100143.69;;;-2.39;70.82
51715;BME280;39115;59.332;18.034;2022-12-07T12:21:10;100138.28;;;-2.34;70.75
51715;BME280;39115;59.332;18.034;2022-12-07T12:23:41;100140.78;;;-2.31;70.57
51715;BME280;39115;59.332;18.034;2022-12-07T12:26:13;100126.03;;;-2.32;70.67
51715;BME280;39115;59.332;18.034;2022-12-07T12:28:41;100130.56;;;-2.35;70.67
51715;BME280;39115;59.332;18.034;2022-12-07T12:31:15;100130.66;;;-2.39;70.80
51715;BME280;39115;59.332;18.034;2022-12-07T12:33:45;100135.88;;;-2.39;70.78
51715;BME280;39115;59.332;18.034;2022-12-07T12:39:22;100131.53;;;-2.38;70.75
51715;BME280;39115;59.332;18.034;2022-12-07T12:42:13;100132.38;;;-2.38;70.96
51715;BME280;39115;59.332;18.034;2022-12-07T12:51:41;100127.94;;;-2.35;70.85
51715;BME280;39115;59.332;18.034;2022-12-07T12:54:22;100121.84;;;-2.36;70.80
51715;BME280;39115;59.332;18.034;2022-12-07T12:59:31;100121.84;;;-2.36;70.70
51715;BME280;39115;59.332;18.034;2022-12-07T13:02:16;100126.16;;;-2.35;70.97
51715;BME280;39115;59.332;18.034;2022-12-07T13:13:01;100123.84;;;-2.41;70.54
51715;BME280;39115;59.332;18.034;2022-12-07T13:20:46;100119.44;;;-2.41;70.69
51715;BME280;39115;59.332;18.034;2022-12-07T13:23:12;100129.97;;;-2.42;71.05
51715;BME280;39115;59.332;18.034;2022-12-07T13:28:32;100126.53;;;-2.43;70.73
51715;BME280;39115;59.332;18.034;2022-12-07T13:31:23;100129.97;;;-2.42;70.95
51715;BME280;39115;59.332;18.034;2022-12-07T13:33:44;100129.88;;;-2.41;70.80
51715;BME280;39115;59.332;18.034;2022-12-07T13:36:33;100126.44;;;-2.41;70.83
51715;BME280;39115;59.332;18.034;2022-12-07T13:39:00;100123.91;;;-2.43;70.79
51715;BME280;39115;59.332;18.034;2022-12-07T13:41:35;100122.28;;;-2.45;70.72
51715;BME280;39115;59.332;18.034;2022-12-07T13:44:08;100124.09;;;-2.47;70.65
51715;BME280;39115;59.332;18.034;2022-12-07T13:49:03;100124.38;;;-2.53;70.66
51715;BME280;39115;59.332;18.034;2022-12-07T13:51:40;100128.88;;;-2.57;70.98
51715;BME280;39115;59.332;18.034;2022-12-07T13:54:09;100120.34;;;-2.61;70.76
51715;BME280;39115;59.332;18.034;2022-12-07T13:56:35;100124.84;;;-2.64;70.99
51715;BME280;39115;59.332;18.034;2022-12-07T13:59:01;100126.66;;;-2.66;70.91
51715;BME280;39115;59.332;18.034;2022-12-07T14:01:26;100120.66;;;-2.68;70.89
51715;BME280;39115;59.332;18.034;2022-12-07T14:03:53;100116.34;;;-2.70;70.75
51715;BME280;39115;59.332;18.034;2022-12-07T14:08:44;100118.88;;;-2.68;70.87
51715;BME280;39115;59.332;18.034;2022-12-07T14:11:12;100115.44;;;-2.68;70.83
51715;BME280;39115;59.332;18.034;2022-12-07T14:16:26;100110.34;;;-2.72;70.83
51715;BME280;39115;59.332;18.034;2022-12-07T14:18:53;100112.19;;;-2.74;70.83
51715;BME280;39115;59.332;18.034;2022-12-07T14:21:20;100116.63;;;-2.76;70.60
51715;BME280;39115;59.332;18.034;2022-12-07T14:24:01;100101.97;;;-2.78;70.95
51715;BME280;39115;59.332;18.034;2022-12-07T14:26:27;100095.19;;;-2.82;71.02
51715;BME280;39115;59.332;18.034;2022-12-07T14:28:52;100103.16;;;-2.86;70.48
51715;BME280;39115;59.332;18.034;2022-12-07T14:31:18;100096.34;;;-2.90;70.76
51715;BME280;39115;59.332;18.034;2022-12-07T14:33:46;100107.63;;;-2.89;70.59
51715;BME280;39115;59.332;18.034;2022-12-07T14:36:11;100099.03;;;-2.91;70.61